Time;durP1;ratioP1;P1;durP2;ratioP2;P2;SDS_P1;SDS_P2;PMS_P1;PMS_P2;Temp;Humidity;BMP_temperature;BMP_pressure;BME280_temperature;BME280_humidity;BME280_pressure;Samples;Min_cycle;Max_cycle;Signal;HPM_P1;HPM_P2
2023/03/02 00:01:03;;;;;;;123.50;43.60;;;;;;;0.23;69.41;101763.43;111138;1206;99128;-61
2023/03/02 00:03:32;;;;;;;107.70;40.10;;;;;;;0.20;69.59;101758.80;110999;1208;139363;-62
2023/03/02 00:05:58;;;;;;;96.90;34.10;;;;;;;0.20;69.62;101759.33;111053;1208;107848;-62
2023/03/02 00:08:24;;;;;;;88.80;34.80;;;;;;;0.21;69.78;101753.73;111172;1205;99031;-62
2023/03/02 00:10:49;;;;;;;118.50;41.20;;;;;;;0.22;69.69;101756.55;111091;1206;139915;-62
2023/03/02 00:13:14;;;;;;;110.00;42.20;;;;;;;0.17;69.77;101751.54;111105;1206;99874;-61
2023/03/02 00:15:40;;;;;;;124.70;43.40;;;;;;;0.14;69.67;101753.08;110996;1206;138976;-61
2023/03/02 00:18:05;;;;;;;119.40;40.90;;;;;;;0.10;69.73;101750.02;111204;1206;99463;-62
2023/03/02 00:20:31;;;;;;;108.20;39.00;;;;;;;0.07;69.95;101740.30;111149;1208;99101;-62
2023/03/02 00:22:56;;;;;;;107.60;39.10;;;;;;;0.05;69.96;101734.99;111027;1205;140895;-62
2023/03/02 00:25:21;;;;;;;88.60;35.60;;;;;;;0.02;70.05;101735.13;111138;1208;99125;-61
2023/03/02 00:27:47;;;;;;;86.90;35.30;;;;;;;-0.03;70.00;101739.82;110993;1206;140906;-61
2023/03/02 00:30:13;;;;;;;98.70;36.20;;;;;;;-0.06;69.94;101742.40;111234;1209;98993;-62
2023/03/02 00:32:39;;;;;;;98.80;34.60;;;;;;;-0.08;70.14;101742.89;111120;1209;107428;-62
2023/03/02 00:35:05;;;;;;;88.40;34.00;;;;;;;-0.10;69.99;101744.42;111032;1205;139314;-62
2023/03/02 00:37:31;;;;;;;108.60;37.50;;;;;;;-0.13;70.23;101744.73;111198;1208;99019;-61
2023/03/02 00:39:56;;;;;;;91.90;35.30;;;;;;;-0.12;70.41;101743.87;110955;1206;141187;-62
2023/03/02 00:42:22;;;;;;;107.00;38.90;;;;;;;-0.13;70.54;101743.32;111091;1209;98958;-62
2023/03/02 00:44:47;;;;;;;103.20;38.90;;;;;;;-0.15;70.54;101743.83;110969;1208;141123;-62
2023/03/02 00:47:12;;;;;;;96.00;36.50;;;;;;;-0.16;70.61;101746.27;111028;1206;98932;-61
2023/03/02 00:49:38;;;;;;;102.00;36.80;;;;;;;-0.18;70.72;101746.05;111062;1209;98926;-62
2023/03/02 00:52:04;;;;;;;98.40;35.50;;;;;;;-0.20;70.66;101746.17;110958;1209;139035;-62
2023/03/02 00:54:29;;;;;;;92.90;37.10;;;;;;;-0.23;70.75;101739.80;111013;1205;98955;-61
2023/03/02 00:56:55;;;;;;;98.90;37.80;;;;;;;-0.25;70.72;101736.42;110919;1209;139982;-62
2023/03/02 00:59:26;;;;;;;108.10;37.40;;;;;;;-0.29;70.76;101735.66;111141;1206;98924;-61
2023/03/02 01:01:56;;;;;;;102.90;39.30;;;;;;;-0.35;70.90;101729.23;111064;1219;98836;-61
2023/03/02 01:04:34;;;;;;;110.20;40.30;;;;;;;-0.37;71.07;101723.93;111121;1208;139528;-62
2023/03/02 01:07:02;;;;;;;114.00;41.60;;;;;;;-0.40;71.03;101722.11;111072;1206;111975;-59
2023/03/02 01:09:28;;;;;;;112.90;39.90;;;;;;;-0.42;71.16;101722.44;111042;1209;141754;-61
2023/03/02 01:11:54;;;;;;;117.40;41.00;;;;;;;-0.43;71.13;101715.38;110975;1208;100017;-62
2023/03/02 01:14:19;;;;;;;97.50;38.80;;;;;;;-0.47;71.19;101716.89;111244;1205;98883;-62
2023/03/02 01:16:46;;;;;;;109.70;38.80;;;;;;;-0.52;71.08;101716.98;110956;1208;140723;-62
2023/03/02 01:19:13;;;;;;;104.80;38.60;;;;;;;-0.53;71.28;101713.27;111179;1206;98938;-62
2023/03/02 01:21:38;;;;;;;106.50;40.70;;;;;;;-0.53;71.45;101715.02;110974;1207;139629;-62
2023/03/02 01:24:04;;;;;;;105.00;37.80;;;;;;;-0.53;71.52;101714.14;111013;1209;99068;-61
2023/03/02 01:26:29;;;;;;;111.20;42.70;;;;;;;-0.53;71.52;101713.97;110967;1206;98923;-61
2023/03/02 01:28:55;;;;;;;121.20;42.70;;;;;;;-0.54;71.36;101710.44;110964;1208;140310;-61
2023/03/02 01:31:21;;;;;;;100.80;40.00;;;;;;;-0.60;71.53;101711.73;111163;1208;98944;-62
2023/03/02 01:33:47;;;;;;;105.70;39.40;;;;;;;-0.64;71.52;101702.34;111007;1206;139752;-62
2023/03/02 01:36:12;;;;;;;113.90;41.90;;;;;;;-0.67;71.71;101700.89;111131;1208;99122;-61
2023/03/02 01:38:37;;;;;;;103.40;38.60;;;;;;;-0.70;71.64;101697.33;111161;1205;97786;-62
2023/03/02 01:41:03;;;;;;;121.80;41.70;;;;;;;-0.73;71.73;101690.58;110976;1208;138897;-61
2023/03/02 01:43:28;;;;;;;103.80;37.90;;;;;;;-0.74;71.78;101685.30;111209;1206;99133;-61
2023/03/02 01:45:57;;;;;;;95.10;35.80;;;;;;;-0.73;71.95;101683.38;111011;1212;139026;-62
2023/03/02 01:48:29;;;;;;;96.10;35.90;;;;;;;-0.70;72.07;101683.27;111092;1208;107841;-62
2023/03/02 01:50:55;;;;;;;102.40;35.40;;;;;;;-0.67;72.09;101680.16;111084;1206;141530;-62
2023/03/02 01:53:23;;;;;;;101.60;37.40;;;;;;;-0.66;72.22;101678.09;111102;1205;99051;-62
2023/03/02 01:55:49;;;;;;;94.90;35.80;;;;;;;-0.67;72.24;101674.39;111100;1208;98990;-62
2023/03/02 01:58:16;;;;;;;101.60;37.30;;;;;;;-0.66;72.27;101674.23;111013;1206;138856;-61
2023/03/02 02:00:42;;;;;;;97.90;36.70;;;;;;;-0.67;72.33;101674.56;111086;1209;99043;-61
2023/03/02 02:03:15;;;;;;;83.20;34.50;;;;;;;-0.65;72.33;101672.13;111123;1206;139116;-62
2023/03/02 02:05:45;;;;;;;90.10;33.40;;;;;;;-0.65;72.38;101669.50;111280;1208;113429;-61
2023/03/02 02:08:10;;;;;;;79.80;32.90;;;;;;;-0.66;72.46;101668.79;111105;1206;99894;-62
2023/03/02 02:10:37;;;;;;;98.10;34.20;;;;;;;-0.63;72.42;101670.23;110917;1208;139516;-61
2023/03/02 02:13:02;;;;;;;80.00;33.30;;;;;;;-0.63;72.76;101671.29;111236;1206;98925;-61
2023/03/02 02:15:28;;;;;;;81.50;32.40;;;;;;;-0.63;72.85;101671.30;110984;1208;139517;-61
2023/03/02 02:17:54;;;;;;;90.80;33.60;;;;;;;-0.62;72.79;101667.63;111186;1205;98951;-61
2023/03/02 02:20:44;;;;;;;80.70;30.90;;;;;;;-0.61;72.84;101668.34;111167;1208;99034;-62
2023/03/02 02:23:55;;;;;;;82.30;31.50;;;;;;;-0.58;72.95;101663.48;111009;1206;100485;-62
2023/03/02 02:26:40;;;;;;;92.40;30.90;;;;;;;-0.58;73.06;101660.52;111026;1210;110998;-62
2023/03/02 02:29:29;;;;;;;79.50;31.70;;;;;;;-0.57;73.15;101659.46;111057;1209;140761;-61
2023/03/02 02:32:25;;;;;;;75.80;28.00;;;;;;;-0.57;73.20;101662.98;111195;1206;107785;-62
2023/03/02 02:34:57;;;;;;;77.30;29.40;;;;;;;-0.53;73.30;101661.65;110858;1206;139687;-61
2023/03/02 02:37:28;;;;;;;77.10;28.30;;;;;;;-0.51;73.37;101659.94;111152;1206;99364;-62
2023/03/02 02:39:54;;;;;;;72.00;29.10;;;;;;;-0.50;73.56;101662.23;111087;1208;140143;-62
2023/03/02 02:42:31;;;;;;;81.80;29.10;;;;;;;-0.48;73.44;101659.10;111144;1206;98951;-62
2023/03/02 02:45:02;;;;;;;82.00;29.30;;;;;;;-0.45;73.55;101663.55;110927;1209;140206;-60
2023/03/02 02:47:28;;;;;;;77.00;29.50;;;;;;;-0.44;73.66;101661.64;111145;1208;98994;-60
2023/03/02 02:49:55;;;;;;;82.90;28.90;;;;;;;-0.43;73.62;101661.65;110948;1207;101195;-62
2023/03/02 02:52:24;;;;;;;72.50;27.30;;;;;;;-0.44;73.69;101661.30;110919;1209;139253;-59
2023/03/02 02:54:52;;;;;;;69.60;28.70;;;;;;;-0.44;73.65;101658.13;111025;1205;99043;-59
2023/03/02 02:57:19;;;;;;;79.20;28.90;;;;;;;-0.44;73.79;101658.83;110970;1209;139270;-61
2023/03/02 02:59:59;;;;;;;79.60;29.20;;;;;;;-0.45;74.12;101657.05;111056;1209;99004;-63
2023/03/02 03:02:28;;;;;;;80.10;29.70;;;;;;;-0.47;74.10;101657.20;111131;1208;99632;-62
2023/03/02 03:05:02;;;;;;;87.80;30.80;;;;;;;-0.48;74.19;101658.23;111067;1208;138879;-63
2023/03/02 03:07:28;;;;;;;77.30;30.70;;;;;;;-0.49;74.16;101658.90;111182;1224;101124;-60
2023/03/02 03:10:07;;;;;;;89.60;30.70;;;;;;;-0.51;74.12;101661.15;110954;1208;139306;-60
2023/03/02 03:12:33;;;;;;;87.20;31.70;;;;;;;-0.55;74.24;101664.60;111030;1206;99011;-60
2023/03/02 03:15:00;;;;;;;74.20;29.10;;;;;;;-0.57;74.24;101672.99;111078;1208;139081;-60
2023/03/02 03:17:25;;;;;;;93.30;33.80;;;;;;;-0.58;74.34;101673.15;111079;1208;99644;-60
2023/03/02 03:19:51;;;;;;;77.60;29.90;;;;;;;-0.61;74.47;101673.96;111067;1206;98941;-60
2023/03/02 03:22:16;;;;;;;81.80;32.20;;;;;;;-0.65;74.31;101666.88;110978;1209;138821;-60
2023/03/02 03:24:43;;;;;;;88.30;32.90;;;;;;;-0.67;74.61;101670.87;111078;1210;100571;-60
2023/03/02 03:27:11;;;;;;;72.60;28.70;;;;;;;-0.69;74.43;101666.63;110973;1209;139297;-60
2023/03/02 03:29:40;;;;;;;85.40;27.40;;;;;;;-0.71;74.47;101667.29;111091;1208;108096;-60
2023/03/02 03:32:06;;;;;;;78.30;29.50;;;;;;;-0.72;74.51;101666.75;111080;1208;99003;-61
2023/03/02 03:34:32;;;;;;;85.80;28.30;;;;;;;-0.72;74.52;101665.86;110954;1210;140548;-60
2023/03/02 03:37:00;;;;;;;85.80;30.90;;;;;;;-0.74;74.72;101665.48;111157;1205;98976;-60
2023/03/02 03:39:28;;;;;;;81.70;27.70;;;;;;;-0.79;74.85;101669.23;110937;1208;140976;-60
2023/03/02 03:41:53;;;;;;;71.00;28.10;;;;;;;-0.84;74.73;101671.23;111196;1209;98921;-60
2023/03/02 03:44:19;;;;;;;84.90;30.30;;;;;;;-0.92;74.64;101669.68;111068;1218;98365;-61
2023/03/02 03:46:44;;;;;;;76.90;28.70;;;;;;;-0.96;74.98;101669.77;110880;1209;139179;-60
2023/03/02 03:49:10;;;;;;;74.90;26.70;;;;;;;-0.99;74.89;101671.48;111015;1211;99262;-61
2023/03/02 03:51:35;;;;;;;77.80;27.60;;;;;;;-1.06;75.05;101672.38;111013;1210;143319;-60
2023/03/02 03:54:02;;;;;;;72.30;25.10;;;;;;;-1.10;75.19;101676.68;111096;1205;112837;-61
2023/03/02 03:56:29;;;;;;;73.00;26.20;;;;;;;-1.12;75.25;101676.81;111090;1208;99111;-60
2023/03/02 03:59:05;;;;;;;76.60;25.20;;;;;;;-1.16;75.52;101672.70;110922;1206;140926;-61
2023/03/02 04:01:39;;;;;;;69.00;23.80;;;;;;;-1.18;75.52;101673.01;111126;1225;98905;-60
2023/03/02 04:04:08;;;;;;;66.20;22.70;;;;;;;-1.20;75.70;101669.46;111030;1208;138894;-61
2023/03/02 04:06:34;;;;;;;73.30;23.10;;;;;;;-1.22;75.73;101668.19;111074;1208;113207;-60
2023/03/02 04:09:03;;;;;;;62.30;23.40;;;;;;;-1.25;75.91;101664.98;111014;1205;139977;-60
2023/03/02 04:11:31;;;;;;;79.40;26.60;;;;;;;-1.27;75.84;101667.92;111086;1208;107966;-60
2023/03/02 04:13:57;;;;;;;74.60;24.90;;;;;;;-1.26;76.04;101666.19;111085;1208;99043;-61
2023/03/02 04:16:23;;;;;;;67.60;22.60;;;;;;;-1.25;76.23;101668.83;110954;1206;139626;-60
2023/03/02 04:18:48;;;;;;;76.80;25.60;;;;;;;-1.27;76.20;101671.95;111159;1208;99079;-60
2023/03/02 04:21:14;;;;;;;63.50;23.10;;;;;;;-1.27;76.28;101669.31;110958;1206;140729;-60
2023/03/02 04:23:39;;;;;;;65.10;24.10;;;;;;;-1.28;76.45;101670.70;111062;1220;102786;-60
2023/03/02 04:26:04;;;;;;;79.20;26.30;;;;;;;-1.27;76.60;101671.95;111201;1209;98918;-62
2023/03/02 04:28:31;;;;;;;64.80;25.20;;;;;;;-1.26;76.84;101671.27;110977;1209;139578;-60
2023/03/02 04:30:56;;;;;;;76.70;28.10;;;;;;;-1.24;76.56;101673.59;111025;1206;98944;-60
2023/03/02 04:33:21;;;;;;;83.10;28.50;;;;;;;-1.24;76.91;101670.77;111106;1208;141273;-60
2023/03/02 04:35:47;;;;;;;87.80;28.90;;;;;;;-1.23;76.87;101672.55;111055;1206;98906;-59
2023/03/02 04:38:13;;;;;;;81.70;28.50;;;;;;;-1.24;77.06;101678.15;111206;1206;98985;-60
2023/03/02 04:40:38;;;;;;;79.10;29.30;;;;;;;-1.20;77.31;101677.52;110964;1208;140286;-59
2023/03/02 04:43:04;;;;;;;85.90;29.40;;;;;;;-1.17;77.12;101677.77;111129;1209;100570;-60
2023/03/02 04:45:29;;;;;;;99.90;28.90;;;;;;;-1.14;77.67;101676.25;111011;1208;140614;-61
2023/03/02 04:47:54;;;;;;;79.70;25.70;;;;;;;-1.10;77.32;101676.69;111014;1208;99021;-60
2023/03/02 04:50:20;;;;;;;63.00;23.30;;;;;;;-1.12;77.52;101674.55;111142;1206;99851;-60
2023/03/02 04:52:45;;;;;;;79.80;26.50;;;;;;;-1.10;77.33;101674.05;110946;1209;140247;-60
2023/03/02 04:55:18;;;;;;;76.60;25.80;;;;;;;-1.08;77.61;101674.27;111046;1206;98925;-60
2023/03/02 04:57:43;;;;;;;77.10;26.20;;;;;;;-1.05;77.50;101674.69;111002;1208;138838;-61
2023/03/02 05:00:11;;;;;;;63.90;22.60;;;;;;;-1.03;77.59;101670.17;111070;1206;97904;-61
2023/03/02 05:02:37;;;;;;;72.70;25.00;;;;;;;-1.01;77.67;101669.17;111266;1208;99040;-61
2023/03/02 05:05:03;;;;;;;65.20;26.20;;;;;;;-0.98;77.77;101660.61;111319;1206;139384;-61
2023/03/02 05:07:29;;;;;;;87.10;26.80;;;;;;;-0.96;77.83;101665.38;111103;1209;107791;-60
2023/03/02 05:09:54;;;;;;;73.00;24.60;;;;;;;-0.95;78.02;101665.93;110949;1208;138967;-61
2023/03/02 05:12:20;;;;;;;76.20;24.20;;;;;;;-0.95;78.11;101671.55;111169;1211;99365;-60
2023/03/02 05:14:45;;;;;;;57.80;21.80;;;;;;;-0.95;78.06;101672.42;110976;1208;139556;-61
2023/03/02 05:17:11;;;;;;;61.20;23.00;;;;;;;-0.96;78.00;101673.11;111142;1208;99063;-61
2023/03/02 05:19:36;;;;;;;62.50;22.60;;;;;;;-0.97;77.98;101671.86;111090;1207;97814;-61
2023/03/02 05:22:01;;;;;;;60.20;23.30;;;;;;;-0.98;78.33;101675.36;111030;1209;139805;-62
2023/03/02 05:24:27;;;;;;;74.40;25.40;;;;;;;-0.96;78.20;101677.32;111175;1208;99565;-61
2023/03/02 05:26:52;;;;;;;77.20;27.30;;;;;;;-0.95;78.36;101683.13;110962;1208;140521;-62
2023/03/02 05:29:17;;;;;;;77.20;26.90;;;;;;;-0.94;78.50;101683.67;111184;1208;99031;-62
2023/03/02 05:31:44;;;;;;;62.70;25.50;;;;;;;-0.92;78.89;101683.71;111090;1208;99030;-62
2023/03/02 05:34:13;;;;;;;70.00;25.60;;;;;;;-0.89;78.66;101686.75;110990;1208;141304;-62
2023/03/02 05:36:39;;;;;;;65.10;26.60;;;;;;;-0.86;78.99;101688.73;111121;1209;98951;-62
2023/03/02 05:39:06;;;;;;;75.90;28.00;;;;;;;-0.82;78.92;101684.09;110997;1208;140041;-61
2023/03/02 05:41:31;;;;;;;71.50;25.70;;;;;;;-0.79;78.85;101682.05;111116;1206;99268;-62
2023/03/02 05:43:57;;;;;;;68.70;24.10;;;;;;;-0.79;78.84;101684.85;111167;1209;99025;-63
2023/03/02 05:46:23;;;;;;;62.90;23.70;;;;;;;-0.80;78.83;101682.91;111010;1206;139049;-62
2023/03/02 05:48:48;;;;;;;61.50;23.20;;;;;;;-0.83;78.93;101682.48;111128;1206;99023;-62
2023/03/02 05:51:14;;;;;;;65.90;26.80;;;;;;;-0.85;78.88;101686.14;111063;1208;139181;-62
2023/03/02 05:53:39;;;;;;;66.20;25.10;;;;;;;-0.84;79.25;101690.01;111103;1209;98956;-62
2023/03/02 05:56:06;;;;;;;72.20;25.80;;;;;;;-0.81;79.41;101693.93;111185;1208;99045;-62
2023/03/02 05:58:31;;;;;;;72.80;28.50;;;;;;;-0.79;79.40;101698.02;111056;1208;140709;-61
2023/03/02 06:00:57;;;;;;;66.80;26.50;;;;;;;-0.77;79.69;101702.61;111037;1206;98951;-62
2023/03/02 06:03:22;;;;;;;65.20;24.90;;;;;;;-0.76;79.62;101706.33;111083;1206;140687;-62
2023/03/02 06:05:51;;;;;;;60.00;26.30;;;;;;;-0.77;79.50;101709.81;111091;1208;99468;-61
2023/03/02 06:08:18;;;;;;;58.30;24.10;;;;;;;-0.78;79.52;101708.74;111307;1208;113955;-61
2023/03/02 06:10:44;;;;;;;61.30;22.60;;;;;;;-0.77;79.92;101712.45;110994;1208;140932;-61
2023/03/02 06:13:10;;;;;;;56.30;21.50;;;;;;;-0.79;79.78;101713.63;111136;1206;99006;-61
2023/03/02 06:15:35;;;;;;;56.00;22.30;;;;;;;-0.81;79.80;101719.03;111000;1207;139618;-61
2023/03/02 06:18:02;;;;;;;50.10;19.80;;;;;;;-0.79;79.97;101722.39;111098;1210;112724;-61
2023/03/02 06:20:27;;;;;;;49.80;20.90;;;;;;;-0.78;80.14;101722.25;111198;1206;99116;-61
2023/03/02 06:22:52;;;;;;;48.90;18.60;;;;;;;-0.74;80.22;101727.77;111043;1223;139411;-61
2023/03/02 06:25:21;;;;;;;42.00;17.20;;;;;;;-0.73;80.17;101730.42;111155;1208;99149;-60
2023/03/02 06:27:50;;;;;;;51.90;19.80;;;;;;;-0.69;80.59;101726.64;110847;1209;142095;-62
2023/03/02 06:30:18;;;;;;;58.40;20.00;;;;;;;-0.64;80.47;101734.45;111133;1209;100013;-61
2023/03/02 06:32:44;;;;;;;44.10;17.60;;;;;;;-0.62;80.42;101733.27;111053;1219;106589;-62
2023/03/02 06:35:10;;;;;;;49.90;18.30;;;;;;;-0.60;80.48;101735.06;110987;1207;99111;-61
2023/03/02 06:37:36;;;;;;;47.60;17.10;;;;;;;-0.57;80.63;101729.68;111044;1210;99403;-62
2023/03/02 06:40:10;;;;;;;50.70;18.40;;;;;;;-0.54;80.50;101729.22;111025;1212;139977;-62
2023/03/02 06:42:37;;;;;;;46.90;16.90;;;;;;;-0.51;80.64;101728.74;111104;1209;108118;-62
2023/03/02 06:45:03;;;;;;;50.00;17.80;;;;;;;-0.50;80.70;101730.53;110979;1209;140911;-62
2023/03/02 06:47:28;;;;;;;55.90;19.20;;;;;;;-0.47;80.54;101733.23;111137;1209;99078;-62
2023/03/02 06:49:53;;;;;;;56.20;16.60;;;;;;;-0.44;80.68;101737.85;111185;1208;98943;-62
2023/03/02 06:52:19;;;;;;;47.30;17.90;;;;;;;-0.42;80.60;101736.48;110941;1210;140637;-61
2023/03/02 06:54:44;;;;;;;55.40;19.20;;;;;;;-0.41;80.60;101740.19;111005;1209;99001;-63
2023/03/02 06:57:09;;;;;;;44.20;16.90;;;;;;;-0.38;80.92;101738.66;110660;1206;141540;-62
2023/03/02 06:59:35;;;;;;;50.40;17.70;;;;;;;-0.32;80.94;101737.19;110830;1218;99010;-62
2023/03/02 07:02:00;;;;;;;53.50;19.00;;;;;;;-0.28;80.96;101735.30;111037;1206;99411;-62
2023/03/02 07:04:28;;;;;;;60.80;20.70;;;;;;;-0.25;80.95;101740.13;111004;1209;139561;-62
2023/03/02 07:06:54;;;;;;;54.90;18.80;;;;;;;-0.20;80.90;101741.97;111000;1206;100113;-62
2023/03/02 07:09:20;;;;;;;54.20;18.40;;;;;;;-0.17;81.17;101741.67;111078;1208;139200;-62
2023/03/02 07:11:45;;;;;;;51.80;17.50;;;;;;;-0.13;81.08;101742.27;110995;1208;98932;-61
2023/03/02 07:14:10;;;;;;;64.80;18.80;;;;;;;-0.13;81.15;101739.30;111113;1208;99895;-61
2023/03/02 07:16:36;;;;;;;48.50;18.00;;;;;;;-0.13;81.10;101737.52;111047;1209;138838;-61
2023/03/02 07:19:01;;;;;;;57.80;21.40;;;;;;;-0.14;81.20;101741.55;111122;1207;98916;-61
2023/03/02 07:21:26;;;;;;;60.40;20.40;;;;;;;-0.16;81.05;101738.17;110957;1208;140585;-61
2023/03/02 07:23:52;;;;;;;63.20;20.90;;;;;;;-0.16;81.21;101741.34;111166;1206;98996;-61
2023/03/02 07:26:17;;;;;;;54.10;18.60;;;;;;;-0.11;81.47;101741.27;111119;1208;98999;-63
2023/03/02 07:28:43;;;;;;;56.30;18.00;;;;;;;-0.10;81.49;101738.11;111001;1208;138880;-60
2023/03/02 07:31:10;;;;;;;44.20;18.00;;;;;;;-0.08;81.35;101737.27;111078;1206;98916;-60
2023/03/02 07:33:37;;;;;;;45.40;18.10;;;;;;;-0.06;81.60;101738.18;110889;1208;139548;-61
2023/03/02 07:36:03;;;;;;;56.40;17.90;;;;;;;-0.01;81.78;101736.32;111033;1208;100447;-60
2023/03/02 07:38:28;;;;;;;53.10;17.60;;;;;;;0.13;82.00;101736.71;111026;1206;98919;-61
2023/03/02 07:40:54;;;;;;;40.50;15.60;;;;;;;0.13;81.63;101732.48;110983;1209;139862;-60
2023/03/02 07:43:20;;;;;;;45.50;15.40;;;;;;;0.07;81.77;101732.58;111134;1206;98934;-61
2023/03/02 07:45:45;;;;;;;46.20;14.40;;;;;;;0.12;82.01;101732.13;111115;1209;140780;-61
2023/03/02 07:48:11;;;;;;;53.70;15.80;;;;;;;0.18;82.08;101726.42;111149;1220;97788;-61
2023/03/02 07:50:36;;;;;;;48.00;17.10;;;;;;;0.24;82.14;101726.00;111092;1206;98996;-61
2023/03/02 07:53:01;;;;;;;47.00;16.50;;;;;;;0.29;82.39;101732.06;111139;1206;139888;-60
2023/03/02 07:55:27;;;;;;;47.30;15.20;;;;;;;0.35;82.24;101731.27;111081;1206;99012;-60
2023/03/02 07:57:53;;;;;;;48.80;16.50;;;;;;;0.35;82.13;101735.48;110725;1221;139527;-61
2023/03/02 08:00:19;;;;;;;47.30;16.80;;;;;;;0.39;82.29;101735.36;111332;1208;98990;-60
2023/03/02 08:02:45;;;;;;;48.30;17.60;;;;;;;0.43;82.56;101734.91;110866;1209;139937;-60
2023/03/02 08:05:11;;;;;;;44.40;13.50;;;;;;;0.50;82.54;101733.44;111007;1209;99051;-61
2023/03/02 08:07:36;;;;;;;42.50;13.80;;;;;;;0.53;82.40;101730.67;111095;1213;99044;-61
2023/03/02 08:10:02;;;;;;;48.30;15.00;;;;;;;0.56;82.60;101726.50;110936;1208;139499;-60
2023/03/02 08:12:28;;;;;;;49.80;15.50;;;;;;;0.62;82.61;101722.54;111209;1206;98889;-61
2023/03/02 08:14:53;;;;;;;45.10;15.40;;;;;;;0.66;82.67;101718.55;110951;1209;140340;-61
2023/03/02 08:17:19;;;;;;;44.90;15.10;;;;;;;0.70;82.69;101715.79;111065;1208;99021;-61
2023/03/02 08:19:44;;;;;;;38.30;13.80;;;;;;;0.76;82.64;101714.46;110930;1206;98986;-61
2023/03/02 08:22:10;;;;;;;55.70;17.90;;;;;;;0.77;82.70;101712.90;110979;1207;140990;-60
2023/03/02 08:24:35;;;;;;;47.90;16.30;;;;;;;0.77;82.66;101708.14;111022;1206;99033;-61
2023/03/02 08:27:02;;;;;;;53.80;16.80;;;;;;;0.74;82.61;101711.45;111063;1208;141009;-62
2023/03/02 08:29:28;;;;;;;47.90;16.20;;;;;;;0.73;82.77;101710.90;110955;1210;100253;-61
2023/03/02 08:31:54;;;;;;;48.00;17.20;;;;;;;0.77;82.89;101706.20;110909;1212;98967;-60
2023/03/02 08:34:19;;;;;;;48.60;17.70;;;;;;;0.84;83.08;101707.37;110926;1208;138756;-61
2023/03/02 08:36:45;;;;;;;73.20;24.30;;;;;;;0.91;83.08;101705.70;110977;1209;111268;-61
2023/03/02 08:39:10;;;;;;;48.50;16.70;;;;;;;0.92;82.95;101700.77;110976;1206;141275;-61
2023/03/02 08:41:36;;;;;;;55.90;17.10;;;;;;;0.92;83.03;101702.19;111128;1206;99336;-61
2023/03/02 08:44:01;;;;;;;51.40;16.00;;;;;;;0.92;82.97;101699.55;110917;1206;99035;-61
2023/03/02 08:46:27;;;;;;;49.20;15.90;;;;;;;0.92;83.04;101702.71;111011;1207;138963;-62
2023/03/02 08:48:52;;;;;;;50.20;18.00;;;;;;;0.91;82.99;101701.30;111084;1208;98935;-60
2023/03/02 08:51:21;;;;;;;49.90;15.60;;;;;;;0.92;83.10;101698.84;110960;1218;140449;-61
2023/03/02 08:53:51;;;;;;;60.10;18.70;;;;;;;0.96;83.28;101699.42;111020;1206;99236;-62
2023/03/02 08:56:25;;;;;;;59.70;18.80;;;;;;;1.00;83.28;101693.48;111086;1208;112323;-62
2023/03/02 08:58:52;;;;;;;65.70;20.00;;;;;;;1.04;83.52;101691.96;110938;1206;139612;-62
2023/03/02 09:01:22;;;;;;;52.40;16.90;;;;;;;1.14;83.54;101692.61;111030;1208;99043;-62
2023/03/02 09:03:47;;;;;;;51.70;15.90;;;;;;;1.22;83.51;101691.98;110873;1206;142635;-62
2023/03/02 09:06:13;;;;;;;45.20;14.30;;;;;;;1.24;83.49;101689.21;111020;1208;98942;-62
2023/03/02 09:08:39;;;;;;;43.20;13.80;;;;;;;1.29;83.55;101683.45;111020;1205;99032;-62
2023/03/02 09:11:04;;;;;;;41.30;13.40;;;;;;;1.39;83.98;101680.20;110889;1206;138660;-62
2023/03/02 09:13:30;;;;;;;38.80;13.70;;;;;;;1.51;83.92;101677.16;110924;1208;99001;-63
2023/03/02 09:15:55;;;;;;;33.60;12.50;;;;;;;1.61;84.01;101671.27;110959;1209;138904;-62
2023/03/02 09:18:21;;;;;;;34.40;12.80;;;;;;;1.70;83.93;101669.59;111038;1208;100604;-63
2023/03/02 09:20:50;;;;;;;39.80;12.80;;;;;;;1.77;83.87;101672.65;110884;1206;138962;-62
2023/03/02 09:23:16;;;;;;;33.50;13.50;;;;;;;1.83;83.81;101671.83;111086;1209;99041;-62
2023/03/02 09:25:42;;;;;;;33.70;12.30;;;;;;;1.87;83.77;101675.92;111078;1208;98928;-62
2023/03/02 09:28:07;;;;;;;38.90;14.10;;;;;;;1.85;83.50;101675.90;110991;1206;139244;-62
2023/03/02 09:30:32;;;;;;;43.60;14.50;;;;;;;1.82;83.56;101677.28;111054;1205;98928;-62
2023/03/02 09:32:57;;;;;;;29.80;13.40;;;;;;;1.85;83.76;101674.14;111058;1207;140789;-61
2023/03/02 09:35:23;;;;;;;26.20;11.80;;;;;;;1.87;83.87;101673.98;111118;1209;100451;-62
2023/03/02 09:37:48;;;;;;;33.20;12.40;;;;;;;1.90;83.61;101671.89;111034;1208;99173;-62
2023/03/02 09:40:26;;;;;;;30.10;12.50;;;;;;;1.90;83.57;101672.77;110986;1206;139944;-63
2023/03/02 09:43:13;;;;;;;33.80;14.30;;;;;;;1.86;83.39;101670.62;110933;1206;113701;-62
2023/03/02 09:45:58;;;;;;;37.50;15.00;;;;;;;1.86;83.60;101668.16;110855;1208;139559;-63
2023/03/02 09:48:44;;;;;;;36.50;14.10;;;;;;;1.86;83.71;101667.45;111044;1208;108042;-62
2023/03/02 09:51:30;;;;;;;40.50;15.90;;;;;;;1.90;83.68;101671.18;110967;1209;139740;-62
2023/03/02 09:54:13;;;;;;;41.80;15.10;;;;;;;1.97;83.75;101669.12;111039;1208;99425;-60
2023/03/02 09:56:44;;;;;;;31.60;12.70;;;;;;;2.02;83.50;101670.05;111032;1209;112056;-60
2023/03/02 09:59:17;;;;;;;;;;;;;;;1.93;83.38;101671.73;111041;1208;101322;-60
2023/03/02 10:01:51;;;;;;;32.90;12.90;;;;;;;1.84;83.36;101668.50;110952;1209;108022;-61
2023/03/02 10:04:22;;;;;;;38.00;14.10;;;;;;;1.86;83.52;101673.27;110777;1209;139421;-61
2023/03/02 10:06:54;;;;;;;40.50;16.20;;;;;;;1.92;83.71;101672.61;110826;1206;98948;-61
2023/03/02 10:09:20;;;;;;;41.30;15.40;;;;;;;2.03;83.92;101675.87;110848;1222;140519;-61
2023/03/02 10:11:57;;;;;;;35.10;15.60;;;;;;;2.14;83.84;101674.38;110890;1208;99068;-60
2023/03/02 10:14:33;;;;;;;34.70;13.60;;;;;;;2.17;83.53;101673.34;110908;1208;107803;-61
2023/03/02 10:17:17;;;;;;;35.00;14.00;;;;;;;2.14;83.51;101668.02;110867;1209;139526;-62
2023/03/02 10:19:54;;;;;;;47.60;19.20;;;;;;;2.12;83.61;101669.77;110886;1209;99016;-62
2023/03/02 10:22:22;;;;;;;37.10;16.90;;;;;;;2.12;83.46;101668.89;110852;1210;140887;-61
2023/03/02 10:25:16;;;;;;;37.20;14.90;;;;;;;2.14;83.52;101669.27;110962;1209;99638;-61
2023/03/02 10:27:43;;;;;;;38.30;15.80;;;;;;;2.21;83.67;101672.14;110860;1205;140808;-61
2023/03/02 10:30:29;;;;;;;35.30;15.30;;;;;;;2.26;83.47;101669.52;111065;1209;100173;-62
2023/03/02 10:33:00;;;;;;;47.10;18.10;;;;;;;2.33;83.66;101664.11;110942;1209;139990;-61
2023/03/02 10:35:27;;;;;;;34.10;14.60;;;;;;;2.43;83.72;101666.81;111050;1208;112743;-61
2023/03/02 10:38:10;;;;;;;55.70;21.20;;;;;;;2.41;83.53;101660.45;110922;1207;99351;-61
2023/03/02 10:40:46;;;;;;;43.70;17.50;;;;;;;2.37;83.35;101660.96;110843;1208;138870;-62
2023/03/02 10:43:18;;;;;;;49.40;16.30;;;;;;;2.37;83.50;101657.78;111088;1209;99027;-61
2023/03/02 10:45:44;;;;;;;42.50;15.20;;;;;;;2.39;83.50;101654.09;110826;1208;139226;-62
2023/03/02 10:48:13;;;;;;;36.00;15.60;;;;;;;2.35;83.28;101653.35;110930;1206;99065;-61
2023/03/02 10:50:41;;;;;;;34.90;16.20;;;;;;;2.23;82.98;101652.05;110860;1208;98998;-61
2023/03/02 10:53:14;;;;;;;42.80;16.90;;;;;;;2.17;83.15;101656.95;110894;1208;138599;-61
2023/03/02 10:55:47;;;;;;;40.00;17.10;;;;;;;2.20;83.40;101655.02;110957;1206;99657;-61
2023/03/02 10:58:24;;;;;;;38.60;15.50;;;;;;;2.21;83.49;101655.02;111004;1209;139825;-62
2023/03/02 11:01:15;;;;;;;38.30;15.10;;;;;;;2.21;83.27;101654.85;110961;1209;113274;-62
2023/03/02 11:03:40;;;;;;;41.50;15.60;;;;;;;2.15;83.26;101652.17;110701;1206;140681;-63